Time;durP1;ratioP1;P1;durP2;ratioP2;P2;SDS_P1;SDS_P2;PMS_P1;PMS_P2;Temp;Humidity;BMP_temperature;BMP_pressure;BME280_temperature;BME280_humidity;BME280_pressure;Samples;Min_cycle;Max_cycle;Signal;HPM_P1;HPM_P2
2023/01/27 00:01:56;;;;;;;7.95;1.25;;;;;;;17.36;37.13;102355.09;16112826;19;129696;-47
2023/01/27 00:07:18;;;;;;;4.93;0.95;;;;;;;17.34;37.31;102359.13;16113229;19;129398;-54
2023/01/27 00:18:22;;;;;;;3.50;1.00;;;;;;;17.23;37.17;102353.06;16127643;19;131159;-46
2023/01/27 00:29:24;;;;;;;6.78;1.65;;;;;;;17.13;36.83;102341.50;16126670;19;130113;-49
2023/01/27 00:34:46;;;;;;;5.22;1.63;;;;;;;17.10;37.16;102350.22;16129640;19;129343;-50
2023/01/27 00:40:09;;;;;;;6.93;1.30;;;;;;;17.06;36.70;102330.41;16127604;19;129910;-47
2023/01/27 00:45:51;;;;;;;6.95;1.55;;;;;;;17.02;36.79;102344.81;16128704;19;129669;-52
2023/01/27 00:51:14;;;;;;;6.43;1.45;;;;;;;16.98;36.80;102344.38;16128610;19;131026;-50
2023/01/27 00:56:37;;;;;;;4.82;1.30;;;;;;;16.93;36.94;102336.69;16124467;19;129862;-51
2023/01/27 01:01:58;;;;;;;5.95;1.52;;;;;;;16.90;36.70;102339.84;16126310;19;130409;-46
2023/01/27 01:07:20;;;;;;;6.13;1.15;;;;;;;16.87;36.66;102331.94;16125172;19;128919;-50
2023/01/27 01:12:42;;;;;;;7.50;1.85;;;;;;;16.83;36.85;102338.94;16121099;19;130333;-46
2023/01/27 01:18:04;;;;;;;6.60;1.50;;;;;;;16.81;36.44;102343.81;16126730;19;129512;-50
2023/01/27 01:23:26;;;;;;;8.90;2.03;;;;;;;16.80;36.59;102342.09;16119734;19;131270;-49
2023/01/27 01:28:48;;;;;;;5.90;1.20;;;;;;;16.78;36.69;102338.69;16120804;19;132297;-51
2023/01/27 01:34:10;;;;;;;6.03;1.38;;;;;;;16.75;36.92;102344.59;16123438;19;129375;-50
2023/01/27 01:39:32;;;;;;;8.60;1.80;;;;;;;16.76;36.67;102346.31;16121136;19;131154;-51
2023/01/27 01:45:36;;;;;;;7.18;1.65;;;;;;;16.77;37.07;102353.56;16124394;19;132861;-51
2023/01/27 01:51:09;;;;;;;6.35;1.23;;;;;;;16.73;36.93;102343.97;16120114;19;131341;-56
2023/01/27 01:56:37;;;;;;;7.03;1.30;;;;;;;16.69;36.91;102351.78;16121974;19;129621;-53
2023/01/27 02:02:03;;;;;;;6.20;1.25;;;;;;;16.67;36.89;102353.03;16122620;19;129625;-57
2023/01/27 02:07:44;;;;;;;5.10;1.42;;;;;;;16.66;36.88;102345.75;16122820;19;130205;-47
2023/01/27 02:13:06;;;;;;;6.50;1.50;;;;;;;16.62;36.80;102343.38;16120179;19;129292;-50
2023/01/27 02:18:28;;;;;;;6.00;1.60;;;;;;;16.60;37.13;102353.81;16121977;19;129824;-49
2023/01/27 02:24:01;;;;;;;4.65;1.10;;;;;;;16.61;36.93;102355.53;16119966;19;131066;-47
2023/01/27 02:29:23;;;;;;;5.55;1.15;;;;;;;16.58;37.15;102350.38;16118676;19;129742;-49
2023/01/27 02:34:45;;;;;;;6.18;1.20;;;;;;;16.58;36.89;102355.91;16119383;19;130668;-47
2023/01/27 02:40:08;;;;;;;6.03;1.08;;;;;;;16.56;36.75;102352.47;16121182;19;130701;-48
2023/01/27 02:45:30;;;;;;;5.13;1.40;;;;;;;16.52;36.78;102350.31;16118551;19;131052;-51
2023/01/27 02:50:52;;;;;;;3.15;1.15;;;;;;;16.52;37.00;102353.09;16117432;19;129417;-48
2023/01/27 02:56:14;;;;;;;2.33;0.90;;;;;;;16.48;36.66;102363.69;16118976;19;131332;-50
2023/01/27 03:01:36;;;;;;;4.60;0.90;;;;;;;16.46;37.00;102351.97;16112282;19;129559;-50
2023/01/27 03:06:58;;;;;;;4.53;1.05;;;;;;;16.45;36.96;102358.53;16118500;19;130551;-50
2023/01/27 03:12:19;;;;;;;2.75;0.80;;;;;;;16.45;37.14;102366.81;16114523;19;129073;-47
2023/01/27 03:23:21;;;;;;;2.45;0.60;;;;;;;16.43;37.27;102379.97;16116438;19;132170;-48
2023/01/27 03:29:53;;;;;;;4.70;0.70;;;;;;;16.44;37.41;102392.72;16116193;19;131686;-49
2023/01/27 03:34:24;;;;;;;4.15;0.90;;;;;;;16.44;37.50;102392.72;16112149;19;129616;-51
2023/01/27 03:51:08;;;;;;;2.30;1.00;;;;;;;16.40;37.24;102396.94;16132678;19;129501;-46
2023/01/27 03:56:30;;;;;;;3.75;1.00;;;;;;;16.38;37.34;102399.91;16129628;19;129726;-53
2023/01/27 04:01:52;;;;;;;3.60;0.93;;;;;;;16.35;36.90;102407.72;16123037;19;130555;-48
2023/01/27 04:07:18;;;;;;;4.50;1.00;;;;;;;16.35;37.06;102421.53;16131756;19;132793;-50
2023/01/27 04:12:40;;;;;;;3.67;0.85;;;;;;;16.33;37.28;102407.91;16125312;19;129650;-50
2023/01/27 04:18:02;;;;;;;2.25;0.60;;;;;;;16.34;36.99;102419.81;16129569;19;129673;-49
2023/01/27 04:23:24;;;;;;;1.65;0.63;;;;;;;16.32;36.99;102411.72;16125044;19;130827;-50
2023/01/27 04:28:46;;;;;;;2.20;0.63;;;;;;;16.32;36.97;102415.34;16128498;19;129523;-50
2023/01/27 04:34:09;;;;;;;3.53;0.77;;;;;;;16.32;36.89;102415.34;16124814;19;129825;-49
2023/01/27 04:39:32;;;;;;;4.13;1.17;;;;;;;16.29;36.76;102423.16;16126818;19;130341;-48
2023/01/27 04:44:53;;;;;;;4.60;1.10;;;;;;;16.26;37.15;102423.53;16127917;19;134156;-51
2023/01/27 04:50:15;;;;;;;4.57;1.15;;;;;;;16.25;36.85;102428.19;16124162;19;130317;-49
2023/01/27 04:55:37;;;;;;;3.05;0.80;;;;;;;16.22;36.82;102434.13;16124264;19;131248;-47
2023/01/27 05:00:59;;;;;;;4.75;1.10;;;;;;;16.22;36.82;102434.13;16124754;19;129291;-49
2023/01/27 05:06:22;;;;;;;3.30;0.98;;;;;;;16.23;37.08;102437.72;16126656;19;131570;-51
2023/01/27 05:11:44;;;;;;;2.75;0.80;;;;;;;16.21;36.71;102445.34;16122271;19;129472;-48
2023/01/27 05:17:06;;;;;;;2.63;0.85;;;;;;;16.20;36.81;102451.91;16124941;19;129575;-47
2023/01/27 05:22:27;;;;;;;2.00;0.82;;;;;;;16.20;36.96;102462.97;16125258;19;130411;-48
2023/01/27 05:27:52;;;;;;;3.97;0.93;;;;;;;16.19;36.81;102466.75;16126066;19;131680;-48
2023/01/27 05:33:14;;;;;;;1.60;0.77;;;;;;;16.18;36.99;102474.22;16122301;19;130673;-49
2023/01/27 05:38:36;;;;;;;1.42;0.80;;;;;;;16.16;36.75;102473.53;16118981;19;129620;-52
2023/01/27 05:43:58;;;;;;;3.67;1.00;;;;;;;16.16;36.97;102479.06;16123127;19;131850;-50
2023/01/27 05:49:19;;;;;;;4.25;1.23;;;;;;;16.13;36.79;102484.97;16122749;19;129062;-47
2023/01/27 05:54:41;;;;;;;2.60;1.10;;;;;;;16.12;36.87;102480.50;16115640;19;129434;-49
2023/01/27 06:00:03;;;;;;;3.72;1.00;;;;;;;16.11;36.42;102487.91;16119528;19;130219;-48
2023/01/27 06:05:25;;;;;;;2.67;0.80;;;;;;;16.11;37.00;102487.91;16120313;19;129824;-47
2023/01/27 06:10:47;;;;;;;3.17;0.98;;;;;;;16.24;36.75;102486.38;16117506;19;129865;-46
2023/01/27 06:16:11;;;;;;;2.17;0.70;;;;;;;16.58;36.90;102488.53;16114422;19;130309;-49
2023/01/27 06:21:33;;;;;;;2.00;1.10;;;;;;;16.98;36.98;102492.84;16116130;19;129340;-47
2023/01/27 06:26:55;;;;;;;2.08;0.93;;;;;;;17.34;36.50;102506.56;16115117;19;130294;-47
2023/01/27 06:32:17;;;;;;;2.33;0.80;;;;;;;17.68;36.07;102495.81;16117069;19;129321;-50
2023/01/27 06:37:38;;;;;;;3.22;1.23;;;;;;;18.11;35.71;102501.19;16109138;19;131938;-52
2023/01/27 06:43:00;;;;;;;2.90;1.10;;;;;;;18.57;35.41;102512.75;16118879;19;129764;-49
2023/01/27 06:48:23;;;;;;;4.78;0.90;;;;;;;18.95;35.27;102520.56;16119883;19;129423;-47
2023/01/27 06:53:45;;;;;;;3.83;0.70;;;;;;;19.15;34.87;102528.03;16122690;19;129452;-48
2023/01/27 06:59:07;;;;;;;2.33;0.90;;;;;;;19.24;34.42;102521.25;16119258;19;131115;-48
2023/01/27 07:04:28;;;;;;;3.55;0.77;;;;;;;19.17;34.60;102539.78;16119964;19;132284;-51
2023/01/27 07:09:50;;;;;;;3.40;0.98;;;;;;;19.03;34.50;102545.31;16120778;19;128936;-48
2023/01/27 07:15:13;;;;;;;1.98;0.90;;;;;;;18.83;35.00;102541.63;16121562;19;132566;-48
2023/01/27 07:20:35;;;;;;;1.95;0.75;;;;;;;18.63;34.81;102541.56;16118947;19;129022;-50
2023/01/27 07:26:00;;;;;;;1.73;0.90;;;;;;;18.44;35.15;102542.13;16134884;19;131755;-47
2023/01/27 07:31:24;;;;;;;0.90;0.60;;;;;;;18.26;34.98;102545.41;16135424;19;129622;-48
2023/01/27 07:36:47;;;;;;;2.00;0.90;;;;;;;18.15;35.50;102538.50;16131830;19;129311;-46
2023/01/27 07:42:09;;;;;;;3.70;0.95;;;;;;;18.27;35.46;102543.47;16129901;19;134315;-46
2023/01/27 07:47:30;;;;;;;1.10;0.60;;;;;;;18.56;34.94;102545.13;16132797;19;129807;-47
2023/01/27 07:52:52;;;;;;;1.00;0.75;;;;;;;18.82;34.39;102540.75;16134033;19;129327;-48
2023/01/27 07:58:14;;;;;;;0.98;0.68;;;;;;;19.14;34.14;102545.75;16130359;19;129454;-48
2023/01/27 08:03:37;;;;;;;1.42;0.60;;;;;;;19.43;34.17;102543.72;16128472;19;130763;-49
2023/01/27 08:08:59;;;;;;;3.10;0.90;;;;;;;19.71;33.61;102550.94;16131742;19;129589;-48
2023/01/27 08:14:21;;;;;;;1.17;0.52;;;;;;;19.93;33.64;102546.91;16129974;19;129736;-49
2023/01/27 08:19:43;;;;;;;2.17;0.50;;;;;;;20.14;33.46;102553.28;16129625;19;129328;-49
2023/01/27 08:25:05;;;;;;;1.58;0.60;;;;;;;20.32;32.64;102560.06;16130453;19;129504;-46
2023/01/27 08:30:27;;;;;;;1.02;0.60;;;;;;;20.44;32.64;102556.41;16129058;19;129400;-51
2023/01/27 08:35:49;;;;;;;1.25;0.57;;;;;;;20.51;32.59;102555.53;16129260;19;131161;-49
2023/01/27 08:41:14;;;;;;;0.85;0.50;;;;;;;20.49;32.35;102566.88;16129617;19;129451;-49
2023/01/27 08:46:36;;;;;;;1.35;0.63;;;;;;;20.36;32.33;102570.56;16128927;19;129434;-49
2023/01/27 08:51:57;;;;;;;1.10;0.50;;;;;;;20.26;32.72;102571.00;16131576;19;129276;-50
2023/01/27 08:57:19;;;;;;;0.70;0.50;;;;;;;20.16;32.57;102570.59;16130314;19;130721;-49
2023/01/27 09:02:41;;;;;;;0.80;0.60;;;;;;;20.06;33.03;102575.75;16131515;19;130038;-50
2023/01/27 09:08:04;;;;;;;0.82;0.40;;;;;;;19.93;33.21;102582.13;16126220;19;130550;-49
2023/01/27 09:13:27;;;;;;;1.63;0.43;;;;;;;19.81;33.34;102579.16;16126192;19;129593;-49
2023/01/27 09:18:48;;;;;;;0.82;0.50;;;;;;;19.73;33.31;102585.78;16129711;19;132815;-50
2023/01/27 09:24:12;;;;;;;0.80;0.40;;;;;;;19.63;33.44;102593.69;16128880;19;129604;-47
2023/01/27 09:29:35;;;;;;;1.67;0.52;;;;;;;19.53;33.02;102594.94;16126197;19;130803;-55
2023/01/27 09:34:57;;;;;;;1.27;0.60;;;;;;;19.49;33.16;102598.34;16128724;19;129357;-52
2023/01/27 09:40:44;;;;;;;0.55;0.40;;;;;;;19.46;33.33;102604.31;16124556;19;129404;-54
2023/01/27 09:46:25;;;;;;;0.82;0.47;;;;;;;19.42;32.48;102600.28;16123836;19;129081;-49
2023/01/27 09:52:02;;;;;;;0.90;0.50;;;;;;;19.40;32.50;102597.69;16127794;19;129323;-49
2023/01/27 09:57:35;;;;;;;0.88;0.50;;;;;;;19.36;32.95;102605.59;16124823;19;129691;-49
2023/01/27 10:03:09;;;;;;;2.03;0.30;;;;;;;19.36;32.38;102605.59;16123864;19;130810;-48
2023/01/27 10:08:58;;;;;;;0.63;0.40;;;;;;;19.35;32.28;102609.44;16124083;19;129953;-46
2023/01/27 10:14:35;;;;;;;0.50;0.30;;;;;;;19.32;32.47;102604.28;16124276;19;129436;-47
2023/01/27 10:20:17;;;;;;;4.03;0.50;;;;;;;19.30;32.38;102600.03;16116907;19;130489;-47
2023/01/27 10:25:44;;;;;;;3.03;0.45;;;;;;;19.34;32.39;102606.88;16121978;19;130182;-48
2023/01/27 10:31:31;;;;;;;4.10;0.60;;;;;;;19.36;32.20;102611.13;16124209;19;128895;-48
2023/01/27 10:37:07;;;;;;;4.47;0.60;;;;;;;19.39;32.48;102609.84;16122235;19;130393;-51
2023/01/27 10:42:45;;;;;;;8.88;0.60;;;;;;;19.40;32.14;102605.19;16123107;19;130020;-49
2023/01/27 10:48:43;;;;;;;3.03;0.45;;;;;;;19.40;32.24;102588.53;16119554;19;129512;-46
2023/01/27 10:54:29;;;;;;;0.90;0.35;;;;;;;19.41;32.36;102584.69;16119017;19;129696;-50
2023/01/27 10:59:50;;;;;;;1.85;0.40;;;;;;;19.42;31.85;102591.94;16119088;19;130138;-52
2023/01/27 11:05:37;;;;;;;0.50;0.43;;;;;;;19.43;31.96;102588.13;16107387;19;131826;-54
2023/01/27 11:16:51;;;;;;;1.98;0.40;;;;;;;19.47;31.69;102592.16;16116691;19;129813;-55
2023/01/27 11:22:20;;;;;;;11.98;0.68;;;;;;;19.48;31.42;102591.09;16120502;19;130620;-49
2023/01/27 11:28:05;;;;;;;4.15;0.85;;;;;;;19.42;31.28;102586.41;16113673;19;131653;-46
2023/01/27 11:33:32;;;;;;;3.03;0.40;;;;;;;19.41;31.24;102591.09;16117388;19;129783;-48
2023/01/27 11:38:56;;;;;;;2.95;0.40;;;;;;;19.41;31.59;102596.63;16116680;19;130226;-47
2023/01/27 11:44:22;;;;;;;4.53;0.50;;;;;;;19.42;31.09;102586.41;16115969;19;129113;-45
2023/01/27 11:49:48;;;;;;;4.60;0.93;;;;;;;19.41;31.06;102585.53;16120976;19;129780;-47
2023/01/27 11:55:13;;;;;;;2.03;0.40;;;;;;;19.42;31.03;102591.94;16116932;19;129751;-46
2023/01/27 12:00:43;;;;;;;1.55;0.38;;;;;;;19.44;30.98;102587.03;16115977;19;131308;-47
2023/01/27 12:06:14;;;;;;;2.13;0.40;;;;;;;19.44;30.57;102578.72;16123425;19;130995;-50
2023/01/27 12:11:36;;;;;;;1.25;0.38;;;;;;;19.44;30.95;102579.56;16129255;19;129558;-48
2023/01/27 12:17:02;;;;;;;1.38;0.50;;;;;;;19.45;30.78;102580.41;16132741;19;131443;-50
2023/01/27 12:22:35;;;;;;;4.80;0.30;;;;;;;19.42;30.82;102575.28;16131222;19;129408;-50
2023/01/27 12:28:01;;;;;;;0.95;0.20;;;;;;;19.34;30.75;102585.50;16130248;19;130909;-49
2023/01/27 12:33:28;;;;;;;0.32;0.20;;;;;;;19.29;30.74;102576.13;16132076;19;129732;-46
2023/01/27 12:39:31;;;;;;;1.85;0.43;;;;;;;19.20;30.93;102573.50;16130739;19;129335;-47
2023/01/27 12:44:53;;;;;;;1.30;0.25;;;;;;;19.07;31.28;102565.16;16130824;19;129301;-49
2023/01/27 12:50:24;;;;;;;0.95;0.30;;;;;;;18.98;31.14;102571.97;16128373;19;129721;-46
2023/01/27 12:55:54;;;;;;;2.55;0.40;;;;;;;18.86;30.88;102550.38;16127086;19;130062;-46
2023/01/27 13:01:40;;;;;;;0.57;0.40;;;;;;;18.76;30.66;102558.25;16129831;19;130672;-48
2023/01/27 13:07:07;;;;;;;3.55;0.50;;;;;;;18.64;30.65;102557.97;16125574;19;129548;-47
2023/01/27 13:12:34;;;;;;;1.63;0.30;;;;;;;18.60;30.56;102556.66;16128865;19;135753;-48
2023/01/27 13:17:57;;;;;;;10.98;1.00;;;;;;;18.62;30.93;102551.78;16124495;19;129756;-48
2023/01/27 13:23:26;;;;;;;12.35;1.13;;;;;;;18.67;30.63;102543.72;16128910;19;129852;-48
2023/01/27 13:29:08;;;;;;;12.20;0.80;;;;;;;18.72;29.98;102549.47;16126922;19;130425;-48
2023/01/27 13:34:46;;;;;;;8.25;1.20;;;;;;;18.75;30.21;102540.75;16126953;19;129868;-49
2023/01/27 13:40:26;;;;;;;10.93;1.13;;;;;;;18.76;29.65;102550.78;16124133;19;129413;-47
2023/01/27 13:45:54;;;;;;;11.95;1.05;;;;;;;18.74;29.76;102557.59;16126530;19;129258;-45
2023/01/27 13:51:19;;;;;;;12.15;1.20;;;;;;;18.75;29.74;102560.16;16126766;19;129781;-48
2023/01/27 13:57:12;;;;;;;8.80;1.10;;;;;;;18.81;29.36;102568.72;16122530;19;129384;-46
2023/01/27 14:03:05;;;;;;;7.97;0.90;;;;;;;18.85;29.20;102564.44;16122692;19;131287;-49
2023/01/27 14:09:08;;;;;;;10.00;0.80;;;;;;;18.90;29.37;102573.84;16122763;19;129825;-49
2023/01/27 14:14:45;;;;;;;6.72;0.90;;;;;;;18.96;29.74;102574.09;16122723;19;130682;-48
2023/01/27 14:20:26;;;;;;;8.85;0.90;;;;;;;19.00;29.21;102589.25;16119392;19;129774;-50
2023/01/27 14:26:03;;;;;;;5.93;0.80;;;;;;;19.05;29.14;102584.78;16123715;19;129408;-46
2023/01/27 14:31:45;;;;;;;4.00;0.70;;;;;;;19.07;29.42;102602.09;16119669;19;130298;-50
2023/01/27 14:37:22;;;;;;;5.05;0.85;;;;;;;19.06;29.13;102600.38;16121816;19;129439;-52
2023/01/27 14:42:53;;;;;;;6.80;0.85;;;;;;;19.04;29.33;102607.19;16120790;19;129672;-50
2023/01/27 14:48:34;;;;;;;3.38;0.55;;;;;;;19.02;29.47;102604.63;16120854;19;129432;-54
2023/01/27 14:54:14;;;;;;;3.83;0.90;;;;;;;18.99;29.46;102595.88;16118963;19;129545;-50
2023/01/27 14:59:41;;;;;;;1.70;0.60;;;;;;;18.93;29.87;102600.31;16116918;19;129550;-48
2023/01/27 15:05:09;;;;;;;4.30;0.57;;;;;;;18.90;29.48;102604.34;16095928;19;130087;-49
2023/01/27 15:10:32;;;;;;;3.13;0.50;;;;;;;18.86;29.95;102610.53;16119225;19;129322;-51
2023/01/27 15:16:05;;;;;;;3.88;0.80;;;;;;;18.84;29.93;102619.06;16119235;19;131244;-48
2023/01/27 15:21:39;;;;;;;1.08;0.30;;;;;;;18.76;29.73;102620.09;16117804;19;130038;-50
2023/01/27 15:27:02;;;;;;;2.50;0.50;;;;;;;18.70;29.83;102623.69;16112671;19;130645;-52
2023/01/27 15:32:27;;;;;;;8.02;1.05;;;;;;;18.67;30.15;102635.19;16116908;19;129600;-53
2023/01/27 15:38:18;;;;;;;6.90;0.77;;;;;;;18.71;30.06;102636.47;16117769;19;132799;-50
2023/01/27 15:44:15;;;;;;;11.05;0.93;;;;;;;18.76;29.90;102633.09;16123123;19;130749;-52
2023/01/27 15:49:44;;;;;;;13.15;1.08;;;;;;;18.83;30.14;102633.16;16131947;19;129466;-49
2023/01/27 15:55:17;;;;;;;9.98;1.15;;;;;;;18.99;30.20;102643.84;16134373;19;129289;-51
2023/01/27 16:00:49;;;;;;;9.20;0.82;;;;;;;19.10;30.37;102639.66;16132243;19;130714;-48
2023/01/27 16:06:14;;;;;;;8.02;0.80;;;;;;;19.19;30.32;102645.88;16132175;19;129323;-46
2023/01/27 16:11:40;;;;;;;14.85;1.00;;;;;;;19.27;30.65;102642.94;16130959;19;130136;-46
2023/01/27 16:17:15;;;;;;;8.25;1.23;;;;;;;19.32;30.41;102640.38;16127932;19;129291;-53
2023/01/27 16:22:40;;;;;;;17.13;1.00;;;;;;;19.34;31.04;102646.56;16126858;19;129687;-50
2023/01/27 16:28:11;;;;;;;13.73;1.30;;;;;;;19.37;30.90;102653.66;16128120;19;129389;-49
2023/01/27 16:33:43;;;;;;;9.90;1.02;;;;;;;19.38;31.39;102658.97;16127575;19;130597;-51
2023/01/27 16:39:17;;;;;;;15.07;1.30;;;;;;;19.38;32.36;102660.91;16125247;19;130456;-58
2023/01/27 16:44:41;;;;;;;11.93;1.35;;;;;;;19.35;33.03;102666.88;16130682;19;130292;-60
2023/01/27 16:50:03;;;;;;;16.50;1.27;;;;;;;19.36;33.94;102668.59;16127708;19;130864;-58
2023/01/27 16:55:25;;;;;;;16.45;1.40;;;;;;;19.50;34.63;102680.56;16123766;19;129171;-55
2023/01/27 17:00:50;;;;;;;18.83;1.10;;;;;;;19.80;34.27;102700.50;16128386;19;129525;-53
2023/01/27 17:06:16;;;;;;;10.25;0.90;;;;;;;20.13;34.26;102687.72;16127303;19;129344;-57
2023/01/27 17:11:40;;;;;;;5.47;1.15;;;;;;;20.35;33.40;102701.41;16124066;19;130428;-56
2023/01/27 17:17:04;;;;;;;3.55;0.65;;;;;;;20.52;33.21;102697.13;16127260;19;130003;-56
2023/01/27 17:22:39;;;;;;;4.88;0.50;;;;;;;20.66;33.08;102697.09;16123606;19;131124;-55
2023/01/27 17:28:07;;;;;;;7.03;1.15;;;;;;;20.71;33.29;102697.28;16126703;19;129605;-53
2023/01/27 17:33:30;;;;;;;8.27;1.10;;;;;;;20.72;33.28;102702.66;16126637;19;135038;-51
2023/01/27 17:38:53;;;;;;;6.38;1.25;;;;;;;20.72;33.31;102708.22;16126261;19;130678;-50
2023/01/27 17:44:15;;;;;;;2.47;0.68;;;;;;;20.65;33.85;102717.63;16123481;19;129464;-53
2023/01/27 17:49:38;;;;;;;2.05;0.82;;;;;;;20.50;33.68;102715.94;16123550;19;129492;-53
2023/01/27 17:55:01;;;;;;;3.53;0.80;;;;;;;20.32;33.93;102724.06;16123189;19;129343;-54
2023/01/27 18:00:29;;;;;;;5.50;0.77;;;;;;;20.15;34.31;102727.28;16121103;19;129055;-50
2023/01/27 18:05:53;;;;;;;2.40;0.70;;;;;;;19.97;34.55;102723.16;16122111;19;129735;-51
2023/01/27 18:11:29;;;;;;;3.13;0.63;;;;;;;19.83;34.25;102729.75;16120712;19;130518;-52
2023/01/27 18:17:21;;;;;;;1.42;0.75;;;;;;;19.65;34.62;102735.91;16123347;19;130743;-49
2023/01/27 18:22:45;;;;;;;2.67;0.70;;;;;;;19.50;34.53;102734.19;16119066;19;130553;-53
2023/01/27 18:28:07;;;;;;;2.92;0.82;;;;;;;19.36;35.42;102744.34;16121093;19;131120;-53
2023/01/27 18:33:32;;;;;;;2.78;0.40;;;;;;;19.35;35.66;102737.09;16118737;19;132954;-52
2023/01/27 18:38:54;;;;;;;2.47;0.60;;;;;;;19.41;36.08;102732.63;16119829;19;130486;-51
2023/01/27 18:44:17;;;;;;;0.82;0.40;;;;;;;19.52;35.63;102733.97;16119693;19;130014;-48
2023/01/27 18:49:39;;;;;;;3.40;0.60;;;;;;;19.82;35.74;102747.47;16118100;19;129490;-53
2023/01/27 18:55:25;;;;;;;0.55;0.40;;;;;;;20.19;35.57;102750.78;16118803;19;131270;-53
2023/01/27 19:00:53;;;;;;;3.10;0.60;;;;;;;20.55;35.44;102752.31;16121365;19;130203;-52
2023/01/27 19:06:15;;;;;;;0.70;0.40;;;;;;;20.87;35.15;102755.28;16118853;19;129540;-51
2023/01/27 19:11:37;;;;;;;1.85;0.60;;;;;;;21.13;34.71;102770.19;16118650;19;129075;-53
2023/01/27 19:17:00;;;;;;;1.52;0.60;;;;;;;21.34;34.69;102771.84;16117943;19;131715;-49
2023/01/27 19:22:21;;;;;;;4.55;0.50;;;;;;;21.45;34.51;102777.78;16113590;19;129488;-49
2023/01/27 19:27:47;;;;;;;0.63;0.32;;;;;;;21.51;34.28;102777.78;16115750;19;130173;-53
2023/01/27 19:33:16;;;;;;;0.73;0.50;;;;;;;21.45;34.14;102780.56;16119284;19;133279;-50
2023/01/27 19:38:38;;;;;;;3.65;0.47;;;;;;;21.30;34.03;102780.81;16114961;19;130582;-55
2023/01/27 19:44:00;;;;;;;3.22;0.65;;;;;;;21.14;34.50;102782.16;16114638;19;130062;-47
2023/01/27 19:49:21;;;;;;;2.88;0.70;;;;;;;20.96;34.26;102780.06;16116129;19;130458;-52
2023/01/27 19:54:43;;;;;;;14.48;1.00;;;;;;;20.75;34.42;102793.13;16111661;19;129745;-45
2023/01/27 20:00:06;;;;;;;6.78;1.15;;;;;;;20.59;35.12;102800.00;16114790;19;131223;-47
2023/01/27 20:05:30;;;;;;;1.90;0.70;;;;;;;20.45;35.00;102797.22;16114314;19;130362;-48
2023/01/27 20:10:54;;;;;;;6.60;0.60;;;;;;;20.34;35.16;102808.09;16114045;19;129994;-48
2023/01/27 20:16:16;;;;;;;2.80;0.60;;;;;;;20.21;35.96;102801.44;16112990;19;129734;-50
2023/01/27 20:21:38;;;;;;;4.53;0.80;;;;;;;20.13;35.90;102802.50;16111999;19;131548;-53
2023/01/27 20:27:00;;;;;;;0.57;0.35;;;;;;;20.09;36.38;102808.69;16114943;19;129344;-48
2023/01/27 20:32:23;;;;;;;2.78;0.47;;;;;;;20.08;35.95;102809.75;16126249;19;130239;-51
2023/01/27 20:37:49;;;;;;;7.15;0.60;;;;;;;20.09;36.59;102809.56;16131207;19;129864;-49
2023/01/27 20:43:11;;;;;;;2.97;0.50;;;;;;;20.08;36.27;102802.28;16128405;19;131083;-48
2023/01/27 20:48:35;;;;;;;4.18;0.57;;;;;;;20.08;36.65;102804.19;16126639;19;129424;-50
2023/01/27 20:53:58;;;;;;;3.28;0.70;;;;;;;20.08;36.28;102802.28;16127862;19;130728;-51
2023/01/27 20:59:20;;;;;;;7.07;0.85;;;;;;;20.08;36.45;102796.75;16126345;19;129712;-46
2023/01/27 21:04:42;;;;;;;1.33;0.30;;;;;;;20.09;36.34;102804.00;16126631;19;129468;-47
2023/01/27 21:10:05;;;;;;;6.95;0.68;;;;;;;20.09;36.61;102798.44;16126326;19;130508;-48
2023/01/27 21:15:27;;;;;;;9.73;0.85;;;;;;;20.08;36.27;102806.97;16126375;19;129198;-48
2023/01/27 21:20:50;;;;;;;3.08;0.50;;;;;;;20.05;36.50;102801.88;16126926;19;131754;-48
2023/01/27 21:26:13;;;;;;;3.90;0.80;;;;;;;20.00;36.67;102794.13;16127155;19;130120;-47
2023/01/27 21:31:34;;;;;;;3.40;0.70;;;;;;;19.96;36.52;102787.28;16125985;19;129995;-50
2023/01/27 21:36:56;;;;;;;5.13;0.60;;;;;;;19.93;36.39;102790.47;16126713;19;129994;-50
2023/01/27 21:48:18;;;;;;;2.65;0.60;;;;;;;19.79;36.63;102787.66;16113829;19;131677;-51
2023/01/27 21:53:40;;;;;;;6.38;0.60;;;;;;;19.73;36.86;102787.63;16112843;19;129351;-47
2023/01/27 21:59:02;;;;;;;1.85;0.50;;;;;;;19.64;36.82;102779.50;16111976;19;129941;-47
2023/01/27 22:04:24;;;;;;;4.65;0.63;;;;;;;19.58;36.51;102780.31;16112716;19;130183;-49
2023/01/27 22:09:45;;;;;;;3.97;0.63;;;;;;;19.49;36.73;102782.44;16112396;19;131658;-53
2023/01/27 22:15:09;;;;;;;4.05;0.60;;;;;;;19.42;36.66;102777.91;16114526;19;130937;-50
2023/01/27 22:20:30;;;;;;;4.53;0.60;;;;;;;19.34;36.34;102777.00;16121578;19;130540;-50
2023/01/27 22:25:52;;;;;;;1.27;0.70;;;;;;;19.28;36.60;102775.06;16124028;19;129577;-50
2023/01/27 22:31:14;;;;;;;6.13;0.55;;;;;;;19.20;36.35;102778.00;16125396;19;130093;-48
2023/01/27 22:36:36;;;;;;;10.93;0.98;;;;;;;19.15;36.20;102774.97;16115258;19;131489;-47
2023/01/27 22:41:58;;;;;;;19.23;1.33;;;;;;;19.14;36.53;102767.69;16119530;19;129297;-47
2023/01/27 22:47:19;;;;;;;12.13;1.77;;;;;;;19.10;36.41;102766.38;16119120;19;129516;-50
2023/01/27 22:52:41;;;;;;;11.50;1.10;;;;;;;19.06;36.84;102771.50;16115985;19;130387;-52
2023/01/27 22:58:03;;;;;;;28.70;2.38;;;;;;;19.02;36.29;102771.06;16115322;19;129681;-46
2023/01/27 23:03:25;;;;;;;24.95;1.92;;;;;;;18.97;36.59;102761.63;16117859;19;129651;-49
2023/01/27 23:08:46;;;;;;;29.42;2.33;;;;;;;18.91;36.45;102774.41;16119647;19;129482;-49
2023/01/27 23:14:08;;;;;;;35.88;1.95;;;;;;;18.78;36.31;102769.59;16117823;19;130845;-47
2023/01/27 23:19:30;;;;;;;32.00;2.15;;;;;;;18.69;36.56;102782.78;16120358;19;130049;-49
2023/01/27 23:24:52;;;;;;;18.55;1.33;;;;;;;18.68;36.01;102786.59;16119423;19;129911;-47
2023/01/27 23:30:14;;;;;;;18.73;2.13;;;;;;;18.67;35.95;102786.78;16117604;19;132215;-49
2023/01/27 23:35:36;;;;;;;17.98;2.70;;;;;;;18.64;35.98;102785.28;16114452;19;129792;-46
2023/01/27 23:41:02;;;;;;;15.90;1.75;;;;;;;18.55;35.61;102775.41;16115158;19;129824;-49
2023/01/27 23:46:24;;;;;;;10.95;2.05;;;;;;;18.46;35.67;102791.31;16117283;19;129733;-47
2023/01/27 23:51:46;;;;;;;14.10;1.77;;;;;;;18.37;35.74;102782.25;16114419;19;130990;-50
2023/01/27 23:57:08;;;;;;;7.80;1.02;;;;;;;18.32;35.70;102787.56;16115880;19;130906;-47
